Time;durP1;ratioP1;P1;durP2;ratioP2;P2;SDS_P1;SDS_P2;PMS_P1;PMS_P2;Temp;Humidity;BMP_temperature;BMP_pressure;BME280_temperature;BME280_humidity;BME280_pressure;Samples;Min_cycle;Max_cycle;Signal;HPM_P1;HPM_P2
2021/01/29 00:00:18;;;;;;;1.60;1.23;;;;;;;;;;5014854;28;20503;-69
2021/01/29 00:02:45;;;;;;;2.13;1.57;;;;;;;;;;5015727;28;20425;-69
2021/01/29 00:05:11;;;;;;;1.77;1.40;;;;;;;;;;5013876;28;20481;-69
2021/01/29 00:07:37;;;;;;;2.50;1.40;;;;;;;;;;5015887;28;20418;-69
2021/01/29 00:10:04;;;;;;;2.20;1.40;;;;;;;;;;5002259;28;20427;-69
2021/01/29 00:12:30;;;;;;;1.73;1.00;;;;;;;;;;5001368;28;20455;-69
2021/01/29 00:14:56;;;;;;;1.63;1.13;;;;;;;;;;5003314;28;20461;-69
2021/01/29 00:17:22;;;;;;;1.90;1.23;;;;;;;;;;4994710;28;20420;-69
2021/01/29 00:19:48;;;;;;;2.27;1.30;;;;;;;;;;5005797;28;20459;-69
2021/01/29 00:22:14;;;;;;;4.03;1.20;;;;;;;;;;5014065;28;20431;-70
2021/01/29 00:24:40;;;;;;;1.40;0.80;;;;;;;;;;5014342;28;20442;-69
2021/01/29 00:27:06;;;;;;;2.00;1.40;;;;;;;;;;5015509;28;20403;-69
2021/01/29 00:29:32;;;;;;;1.60;1.10;;;;;;;;;;5014144;28;20945;-69
2021/01/29 00:31:59;;;;;;;1.47;1.10;;;;;;;;;;5015170;28;20429;-70
2021/01/29 00:34:25;;;;;;;1.70;1.07;;;;;;;;;;5007640;28;20814;-69
2021/01/29 00:36:51;;;;;;;1.93;1.10;;;;;;;;;;4995435;28;20507;-69
2021/01/29 00:39:17;;;;;;;1.30;1.00;;;;;;;;;;5007064;28;20931;-70
2021/01/29 00:41:43;;;;;;;2.17;1.10;;;;;;;;;;5044809;23;20492;-68
2021/01/29 00:44:09;;;;;;;1.60;1.20;;;;;;;;;;5053738;28;20428;-68
2021/01/29 00:46:35;;;;;;;1.73;1.20;;;;;;;;;;5053268;28;20841;-68
2021/01/29 00:49:01;;;;;;;3.37;1.17;;;;;;;;;;5050896;28;20429;-68
2021/01/29 00:51:27;;;;;;;1.77;1.40;;;;;;;;;;5034455;28;20425;-68
2021/01/29 00:53:53;;;;;;;1.63;1.20;;;;;;;;;;5035410;28;20844;-68
2021/01/29 00:56:19;;;;;;;1.87;1.30;;;;;;;;;;5053094;28;20402;-67
2021/01/29 00:58:45;;;;;;;1.87;1.17;;;;;;;;;;5053055;28;20411;-67
2021/01/29 01:01:13;;;;;;;1.60;1.10;;;;;;;;;;5034405;28;20435;-66
2021/01/29 01:03:40;;;;;;;1.50;1.10;;;;;;;;;;5034389;28;20537;-67
2021/01/29 01:06:06;;;;;;;1.60;1.20;;;;;;;;;;5034407;28;20442;-67
2021/01/29 01:08:32;;;;;;;1.30;0.90;;;;;;;;;;5033233;28;20436;-67
2021/01/29 01:10:58;;;;;;;1.70;1.10;;;;;;;;;;5052700;28;20458;-67
2021/01/29 01:13:24;;;;;;;1.60;0.93;;;;;;;;;;5054601;28;20474;-68
2021/01/29 01:15:50;;;;;;;2.27;1.30;;;;;;;;;;5037455;28;20836;-68
2021/01/29 01:18:16;;;;;;;2.00;1.10;;;;;;;;;;5037093;28;20424;-68
2021/01/29 01:20:42;;;;;;;1.80;1.30;;;;;;;;;;5050284;28;20430;-68
2021/01/29 01:23:08;;;;;;;1.67;1.07;;;;;;;;;;5054026;28;20776;-68
2021/01/29 01:25:34;;;;;;;1.50;1.10;;;;;;;;;;5053212;28;20433;-67
2021/01/29 01:28:00;;;;;;;1.67;1.10;;;;;;;;;;5053979;28;20451;-67
2021/01/29 01:30:27;;;;;;;1.53;1.20;;;;;;;;;;5052570;28;20485;-67
2021/01/29 01:32:54;;;;;;;1.30;0.90;;;;;;;;;;5053818;28;20432;-67
2021/01/29 01:35:20;;;;;;;1.53;1.00;;;;;;;;;;5052540;28;20794;-67
2021/01/29 01:37:46;;;;;;;1.47;1.00;;;;;;;;;;5053831;28;20409;-68
2021/01/29 01:40:14;;;;;;;1.50;1.10;;;;;;;;;;5052233;28;20421;-68
2021/01/29 01:42:40;;;;;;;2.07;0.97;;;;;;;;;;5053422;28;20440;-68
2021/01/29 01:45:25;;;;;;;1.33;0.90;;;;;;;;;;5043780;28;20435;-68
2021/01/29 01:47:51;;;;;;;2.23;1.00;;;;;;;;;;5033563;28;20433;-68
2021/01/29 01:50:21;;;;;;;1.67;1.10;;;;;;;;;;5033353;28;20417;-68
2021/01/29 01:52:47;;;;;;;1.37;0.83;;;;;;;;;;5037454;28;20449;-68
2021/01/29 01:55:18;;;;;;;2.13;1.13;;;;;;;;;;5033155;28;20513;-68
2021/01/29 01:57:47;;;;;;;1.60;1.03;;;;;;;;;;5033490;28;20498;-68
2021/01/29 02:00:15;;;;;;;1.57;1.00;;;;;;;;;;5042244;28;20481;-68
2021/01/29 02:02:57;;;;;;;1.30;0.80;;;;;;;;;;5053268;28;20921;-68
2021/01/29 02:05:25;;;;;;;1.30;0.90;;;;;;;;;;5051181;28;20441;-68
2021/01/29 02:07:51;;;;;;;1.67;0.90;;;;;;;;;;5052716;28;20419;-68
2021/01/29 02:10:17;;;;;;;1.30;0.83;;;;;;;;;;5042969;28;20437;-68
2021/01/29 02:12:43;;;;;;;1.20;0.80;;;;;;;;;;5033356;28;20532;-68
2021/01/29 02:15:13;;;;;;;1.83;1.20;;;;;;;;;;5040547;28;21049;-68
2021/01/29 02:17:42;;;;;;;1.53;0.90;;;;;;;;;;5051048;28;20431;-68
2021/01/29 02:20:08;;;;;;;1.80;0.90;;;;;;;;;;5050370;28;20440;-68
2021/01/29 02:22:46;;;;;;;2.00;0.90;;;;;;;;;;5052918;28;20833;-68
2021/01/29 02:25:15;;;;;;;1.87;0.97;;;;;;;;;;5051628;28;20780;-68
2021/01/29 02:27:45;;;;;;;1.80;1.10;;;;;;;;;;5052811;28;20947;-67
2021/01/29 02:30:31;;;;;;;2.17;0.90;;;;;;;;;;5051958;28;20421;-67
2021/01/29 02:33:24;;;;;;;1.73;0.90;;;;;;;;;;5052846;28;20489;-67
2021/01/29 02:35:50;;;;;;;1.30;0.80;;;;;;;;;;5048706;28;20529;-67
2021/01/29 02:38:34;;;;;;;1.37;1.00;;;;;;;;;;5052884;28;20440;-67
2021/01/29 02:41:18;;;;;;;1.40;0.90;;;;;;;;;;5042131;28;20830;-67
2021/01/29 02:43:51;;;;;;;3.27;1.07;;;;;;;;;;5032740;28;20406;-67
2021/01/29 02:46:17;;;;;;;1.40;0.90;;;;;;;;;;5043380;28;20832;-67
2021/01/29 02:49:12;;;;;;;1.73;0.87;;;;;;;;;;5052953;28;20456;-67
2021/01/29 02:51:49;;;;;;;1.50;0.90;;;;;;;;;;5036525;28;20485;-66
2021/01/29 02:54:15;;;;;;;1.60;0.80;;;;;;;;;;5038040;28;20458;-69
2021/01/29 02:57:05;;;;;;;1.23;0.80;;;;;;;;;;5037048;28;20434;-68
2021/01/29 02:59:37;;;;;;;2.27;1.23;;;;;;;;;;5032906;28;20389;-68
2021/01/29 03:02:23;;;;;;;1.53;1.00;;;;;;;;;;5037966;28;20823;-68
2021/01/29 03:04:53;;;;;;;1.30;0.77;;;;;;;;;;5032451;28;20437;-68
2021/01/29 03:07:25;;;;;;;1.30;0.83;;;;;;;;;;5033159;28;20420;-68
2021/01/29 03:09:56;;;;;;;1.30;0.83;;;;;;;;;;5032859;28;20406;-68
2021/01/29 03:12:48;;;;;;;1.40;1.00;;;;;;;;;;5032732;28;20434;-68
2021/01/29 03:15:20;;;;;;;1.57;0.90;;;;;;;;;;5032007;28;20471;-68
2021/01/29 03:17:52;;;;;;;1.80;1.30;;;;;;;;;;5052477;28;20911;-68
2021/01/29 03:20:21;;;;;;;2.43;0.90;;;;;;;;;;5049867;28;20767;-68
2021/01/29 03:22:53;;;;;;;1.30;0.80;;;;;;;;;;5036528;28;20764;-68
2021/01/29 03:25:28;;;;;;;1.60;1.03;;;;;;;;;;5038328;28;20432;-68
2021/01/29 03:27:58;;;;;;;1.30;0.80;;;;;;;;;;5056287;28;20387;-68
2021/01/29 03:30:26;;;;;;;2.17;0.90;;;;;;;;;;5055304;28;20429;-68
2021/01/29 03:32:54;;;;;;;1.30;0.83;;;;;;;;;;5054777;28;20458;-68
2021/01/29 03:35:23;;;;;;;1.60;0.83;;;;;;;;;;5052871;28;20466;-68
2021/01/29 03:37:53;;;;;;;1.53;1.17;;;;;;;;;;5035992;28;20407;-68
2021/01/29 03:40:19;;;;;;;1.90;0.80;;;;;;;;;;5037174;28;20422;-67
2021/01/29 03:42:57;;;;;;;1.20;0.80;;;;;;;;;;5055694;28;20435;-67
2021/01/29 03:45:28;;;;;;;1.40;0.80;;;;;;;;;;5050233;28;20439;-67
2021/01/29 03:47:57;;;;;;;1.30;0.70;;;;;;;;;;5036111;28;20397;-67
2021/01/29 03:50:39;;;;;;;3.00;0.90;;;;;;;;;;5037371;28;20408;-67
2021/01/29 03:53:25;;;;;;;1.30;0.80;;;;;;;;;;5041822;28;20433;-67
2021/01/29 03:56:02;;;;;;;1.37;1.00;;;;;;;;;;5025059;28;20455;-67
2021/01/29 03:58:40;;;;;;;1.93;0.90;;;;;;;;;;5055873;28;20416;-67
2021/01/29 04:01:18;;;;;;;1.23;0.77;;;;;;;;;;5051293;28;20447;-67
2021/01/29 04:03:57;;;;;;;2.30;1.23;;;;;;;;;;5055601;28;20381;-67
2021/01/29 04:06:24;;;;;;;1.70;1.00;;;;;;;;;;5054145;28;20414;-67
2021/01/29 04:08:53;;;;;;;1.50;0.80;;;;;;;;;;5055338;28;20412;-67
2021/01/29 04:11:21;;;;;;;1.80;0.90;;;;;;;;;;5045997;28;20571;-67
2021/01/29 04:13:49;;;;;;;1.50;0.90;;;;;;;;;;5035584;28;20911;-67
2021/01/29 04:16:17;;;;;;;1.90;1.20;;;;;;;;;;5042940;28;20466;-67
2021/01/29 04:18:53;;;;;;;1.30;0.97;;;;;;;;;;5053976;28;20416;-67
2021/01/29 04:21:19;;;;;;;2.27;0.90;;;;;;;;;;5053778;28;20449;-66
2021/01/29 04:23:48;;;;;;;1.40;0.80;;;;;;;;;;5055165;28;20801;-67
2021/01/29 04:26:17;;;;;;;1.20;0.80;;;;;;;;;;5045685;28;20797;-67
2021/01/29 04:28:48;;;;;;;1.90;1.03;;;;;;;;;;5055151;28;20418;-66
2021/01/29 04:31:16;;;;;;;1.57;1.17;;;;;;;;;;5046338;28;20463;-67
2021/01/29 04:33:47;;;;;;;2.33;1.03;;;;;;;;;;5035212;28;20905;-67
2021/01/29 04:36:15;;;;;;;1.30;0.97;;;;;;;;;;5033963;28;20438;-67
2021/01/29 04:38:50;;;;;;;1.83;1.33;;;;;;;;;;5052036;28;20429;-66
2021/01/29 04:41:28;;;;;;;1.40;0.80;;;;;;;;;;5052304;28;21000;-66
2021/01/29 04:43:54;;;;;;;1.27;0.80;;;;;;;;;;5054864;28;20417;-66
2021/01/29 04:46:26;;;;;;;1.60;1.10;;;;;;;;;;5053643;28;20617;-66
2021/01/29 04:49:11;;;;;;;1.30;0.83;;;;;;;;;;5054680;28;20424;-66
2021/01/29 04:51:52;;;;;;;1.27;0.83;;;;;;;;;;5053315;28;20975;-67
2021/01/29 04:54:37;;;;;;;1.40;0.83;;;;;;;;;;5040084;28;20493;-67
2021/01/29 04:57:05;;;;;;;1.30;0.90;;;;;;;;;;5046463;28;20440;-67
2021/01/29 04:59:31;;;;;;;1.20;0.70;;;;;;;;;;5051617;28;20969;-67
2021/01/29 05:02:16;;;;;;;1.20;0.73;;;;;;;;;;5053383;28;20451;-67
2021/01/29 05:04:48;;;;;;;1.30;0.90;;;;;;;;;;5054738;28;20408;-67
2021/01/29 05:07:32;;;;;;;1.20;0.70;;;;;;;;;;5040317;28;20425;-67
2021/01/29 05:10:13;;;;;;;1.80;1.00;;;;;;;;;;5034366;28;20456;-67
2021/01/29 05:12:45;;;;;;;1.20;0.70;;;;;;;;;;5034419;28;20450;-67
2021/01/29 05:15:27;;;;;;;1.30;0.90;;;;;;;;;;5034707;28;20504;-67
2021/01/29 05:18:11;;;;;;;1.50;0.80;;;;;;;;;;5034429;28;20429;-67
2021/01/29 05:20:45;;;;;;;1.40;0.87;;;;;;;;;;5034231;28;20400;-67
2021/01/29 05:23:30;;;;;;;1.57;0.90;;;;;;;;;;5034185;28;20405;-66
2021/01/29 05:26:10;;;;;;;1.37;0.87;;;;;;;;;;5034928;28;20762;-66
2021/01/29 05:28:55;;;;;;;1.33;0.70;;;;;;;;;;5054149;28;20441;-67
2021/01/29 05:31:21;;;;;;;1.27;0.80;;;;;;;;;;5049629;28;20460;-68
2021/01/29 05:33:52;;;;;;;1.80;1.10;;;;;;;;;;5044997;28;20457;-68
2021/01/29 05:36:23;;;;;;;1.80;1.00;;;;;;;;;;5052639;28;20435;-67
2021/01/29 05:38:55;;;;;;;1.63;0.80;;;;;;;;;;5054129;28;20407;-67
2021/01/29 05:41:39;;;;;;;2.63;0.80;;;;;;;;;;5049639;28;20450;-67
2021/01/29 05:44:24;;;;;;;5.73;1.00;;;;;;;;;;5035060;28;20417;-67
2021/01/29 05:46:50;;;;;;;1.47;1.00;;;;;;;;;;5041934;28;20449;-67
2021/01/29 05:49:24;;;;;;;1.60;0.80;;;;;;;;;;5054875;28;20405;-67
2021/01/29 05:51:50;;;;;;;1.50;0.90;;;;;;;;;;5053317;28;20978;-67
2021/01/29 05:54:25;;;;;;;1.70;0.90;;;;;;;;;;5055035;28;20452;-68
2021/01/29 05:56:51;;;;;;;1.30;0.70;;;;;;;;;;5052994;28;20592;-68
2021/01/29 05:59:36;;;;;;;2.03;0.90;;;;;;;;;;5054511;28;20437;-68
2021/01/29 06:02:17;;;;;;;3.83;0.90;;;;;;;;;;5052268;28;20435;-67
2021/01/29 06:04:56;;;;;;;1.73;1.03;;;;;;;;;;5053607;28;20490;-67
2021/01/29 06:07:51;;;;;;;1.80;1.00;;;;;;;;;;5050957;28;20983;-67
2021/01/29 06:10:33;;;;;;;2.40;1.03;;;;;;;;;;5040143;28;20413;-67
2021/01/29 06:13:13;;;;;;;1.63;1.10;;;;;;;;;;5052142;28;20423;-67
2021/01/29 06:15:41;;;;;;;1.63;0.90;;;;;;;;;;5053397;28;20982;-68
2021/01/29 06:18:10;;;;;;;2.80;1.10;;;;;;;;;;5052047;28;20426;-66
2021/01/29 06:20:48;;;;;;;1.53;0.93;;;;;;;;;;5052994;28;20887;-67
2021/01/29 06:23:33;;;;;;;1.50;1.00;;;;;;;;;;5034734;28;20427;-67
2021/01/29 06:26:20;;;;;;;1.30;0.87;;;;;;;;;;5033476;28;20897;-67
2021/01/29 06:28:55;;;;;;;1.30;0.90;;;;;;;;;;5033697;28;20402;-67
2021/01/29 06:31:56;;;;;;;2.20;1.03;;;;;;;;;;5043745;28;20453;-67
2021/01/29 06:34:37;;;;;;;1.60;1.20;;;;;;;;;;5053261;28;20456;-67
2021/01/29 06:37:23;;;;;;;1.97;1.10;;;;;;;;;;5051875;28;20980;-67
2021/01/29 06:40:02;;;;;;;1.80;0.90;;;;;;;;;;5034027;28;20837;-67
2021/01/29 06:42:43;;;;;;;1.57;0.97;;;;;;;;;;5032571;22;20495;-67
2021/01/29 06:45:17;;;;;;;1.50;0.80;;;;;;;;;;4993026;28;20427;-67
2021/01/29 06:47:58;;;;;;;2.03;1.13;;;;;;;;;;4992264;28;20928;-67
2021/01/29 06:50:32;;;;;;;5.00;1.07;;;;;;;;;;4992921;28;20386;-67
2021/01/29 06:53:02;;;;;;;1.40;0.80;;;;;;;;;;4992739;28;20454;-67
2021/01/29 06:55:30;;;;;;;1.87;1.43;;;;;;;;;;4996983;28;20774;-67
2021/01/29 06:57:56;;;;;;;1.93;1.17;;;;;;;;;;4996315;28;20434;-67
2021/01/29 07:00:36;;;;;;;1.87;1.00;;;;;;;;;;4996890;28;20415;-67
2021/01/29 07:03:21;;;;;;;2.30;1.00;;;;;;;;;;4996039;28;20452;-67
2021/01/29 07:05:53;;;;;;;1.30;0.90;;;;;;;;;;4996901;28;20412;-67
2021/01/29 07:08:32;;;;;;;2.27;1.00;;;;;;;;;;4996263;28;20455;-67
2021/01/29 07:11:17;;;;;;;1.73;1.07;;;;;;;;;;4996882;28;20745;-67
2021/01/29 07:13:52;;;;;;;1.87;0.83;;;;;;;;;;4996102;28;20462;-67
2021/01/29 07:16:27;;;;;;;1.60;0.80;;;;;;;;;;4996721;28;20436;-67
2021/01/29 07:19:00;;;;;;;1.40;1.20;;;;;;;;;;4996376;28;20434;-67
2021/01/29 07:21:46;;;;;;;1.63;1.10;;;;;;;;;;4995920;28;20437;-68
2021/01/29 07:24:31;;;;;;;1.30;0.90;;;;;;;;;;4996576;28;20762;-67
2021/01/29 07:27:14;;;;;;;1.30;0.80;;;;;;;;;;4995556;28;20430;-67
2021/01/29 07:29:43;;;;;;;1.30;0.83;;;;;;;;;;4996583;28;20888;-68
2021/01/29 07:32:15;;;;;;;1.60;0.90;;;;;;;;;;4995306;28;20480;-67
2021/01/29 07:34:46;;;;;;;1.30;0.70;;;;;;;;;;4996101;28;20474;-68
2021/01/29 07:37:20;;;;;;;1.20;0.70;;;;;;;;;;4994610;28;20547;-67
2021/01/29 07:39:48;;;;;;;1.30;0.80;;;;;;;;;;4996453;28;20462;-67
2021/01/29 07:42:28;;;;;;;1.30;1.10;;;;;;;;;;4995382;28;20447;-67
2021/01/29 07:45:13;;;;;;;1.40;0.87;;;;;;;;;;4996067;28;20389;-67
2021/01/29 07:47:59;;;;;;;1.43;0.80;;;;;;;;;;4994784;28;20433;-68
2021/01/29 07:50:44;;;;;;;1.73;0.90;;;;;;;;;;4995751;28;20738;-68
2021/01/29 07:53:18;;;;;;;1.67;0.80;;;;;;;;;;4995188;28;20509;-68
2021/01/29 07:55:47;;;;;;;1.30;0.80;;;;;;;;;;4995934;28;20813;-67
2021/01/29 07:58:25;;;;;;;1.20;0.70;;;;;;;;;;4995014;28;20450;-67
2021/01/29 08:01:08;;;;;;;2.47;0.80;;;;;;;;;;4994485;28;20485;-68
2021/01/29 08:03:47;;;;;;;1.20;0.80;;;;;;;;;;4992932;28;20515;-68
2021/01/29 08:06:24;;;;;;;1.30;0.80;;;;;;;;;;4979232;28;20419;-68
2021/01/29 08:09:12;;;;;;;2.37;0.80;;;;;;;;;;4987370;28;20486;-68
2021/01/29 08:11:40;;;;;;;1.20;0.70;;;;;;;;;;4995296;28;20800;-68
2021/01/29 08:14:09;;;;;;;1.53;0.93;;;;;;;;;;4994702;28;20530;-68
2021/01/29 08:16:54;;;;;;;1.50;0.83;;;;;;;;;;4988681;28;20878;-68
2021/01/29 08:19:52;;;;;;;1.60;0.90;;;;;;;;;;4982329;28;20436;-68
2021/01/29 08:22:37;;;;;;;1.40;0.80;;;;;;;;;;4922417;28;20847;-68
2021/01/29 08:25:22;;;;;;;1.53;0.97;;;;;;;;;;4995348;28;20435;-68
2021/01/29 08:28:14;;;;;;;1.37;0.80;;;;;;;;;;4994675;28;20432;-68
2021/01/29 08:31:00;;;;;;;1.67;0.83;;;;;;;;;;4995501;28;20425;-68
2021/01/29 08:33:45;;;;;;;9.60;1.00;;;;;;;;;;4962753;28;20439;-67
2021/01/29 08:36:11;;;;;;;1.40;0.70;;;;;;;;;;4989814;28;20432;-67
2021/01/29 08:38:43;;;;;;;1.23;0.77;;;;;;;;;;4993996;28;20841;-67
2021/01/29 08:41:09;;;;;;;1.77;0.90;;;;;;;;;;4994876;28;20410;-67
2021/01/29 08:43:35;;;;;;;2.57;0.77;;;;;;;;;;4994358;28;20754;-67
2021/01/29 08:46:10;;;;;;;1.40;0.90;;;;;;;;;;4992261;28;20508;-67
2021/01/29 08:48:54;;;;;;;1.53;0.80;;;;;;;;;;4993571;28;20501;-67
2021/01/29 08:51:27;;;;;;;1.30;0.70;;;;;;;;;;4994478;28;20436;-67
2021/01/29 08:53:55;;;;;;;1.20;0.70;;;;;;;;;;4994444;28;20490;-67
2021/01/29 08:56:28;;;;;;;3.50;1.00;;;;;;;;;;4995628;28;20430;-67
2021/01/29 08:59:09;;;;;;;1.40;0.83;;;;;;;;;;4993915;28;20431;-67
2021/01/29 09:01:35;;;;;;;1.27;0.80;;;;;;;;;;4994940;28;20460;-67
2021/01/29 09:04:04;;;;;;;1.30;0.77;;;;;;;;;;4993942;28;20519;-67
2021/01/29 09:06:37;;;;;;;1.93;0.97;;;;;;;;;;4991374;28;20509;-67
2021/01/29 09:09:06;;;;;;;1.60;0.70;;;;;;;;;;4985994;28;21000;-68
2021/01/29 09:11:42;;;;;;;1.93;0.80;;;;;;;;;;4993523;28;20950;-67
2021/01/29 09:14:13;;;;;;;1.30;0.80;;;;;;;;;;4993822;28;20591;-67
2021/01/29 09:16:40;;;;;;;1.30;0.70;;;;;;;;;;4993654;28;20748;-67
2021/01/29 09:19:13;;;;;;;3.57;0.80;;;;;;;;;;4993159;28;20466;-67
2021/01/29 09:21:54;;;;;;;1.30;0.77;;;;;;;;;;4994532;28;20457;-67
2021/01/29 09:24:23;;;;;;;1.53;0.93;;;;;;;;;;4993720;28;20481;-67
2021/01/29 09:26:52;;;;;;;1.60;0.80;;;;;;;;;;4994440;28;20526;-67
2021/01/29 09:29:34;;;;;;;1.50;0.80;;;;;;;;;;4991440;28;20971;-68
2021/01/29 09:32:02;;;;;;;1.20;0.70;;;;;;;;;;4993541;28;20444;-68
2021/01/29 09:34:32;;;;;;;1.40;1.00;;;;;;;;;;4992705;28;21293;-70
2021/01/29 09:37:02;;;;;;;1.20;0.70;;;;;;;;;;4993802;28;20441;-68
2021/01/29 09:39:34;;;;;;;2.17;0.93;;;;;;;;;;4992126;28;20506;-68
2021/01/29 09:42:06;;;;;;;1.47;0.83;;;;;;;;;;4993096;28;20473;-66
2021/01/29 09:44:32;;;;;;;1.20;0.70;;;;;;;;;;4991640;28;20434;-66
2021/01/29 09:47:00;;;;;;;1.40;0.80;;;;;;;;;;4992915;28;20948;-68
2021/01/29 09:49:27;;;;;;;2.00;1.20;;;;;;;;;;4991895;28;20977;-67
2021/01/29 09:51:59;;;;;;;1.30;0.80;;;;;;;;;;4993492;28;20445;-68
2021/01/29 09:54:28;;;;;;;1.63;0.90;;;;;;;;;;4992407;28;20457;-66
2021/01/29 09:57:00;;;;;;;2.40;1.60;;;;;;;;;;4993373;28;20773;-66
2021/01/29 09:59:46;;;;;;;1.63;0.80;;;;;;;;;;4992307;28;20430;-67
2021/01/29 10:02:15;;;;;;;2.50;1.10;;;;;;;;;;4993254;28;20438;-67
2021/01/29 10:05:00;;;;;;;2.00;0.60;;;;;;;;;;4990568;28;20429;-68
2021/01/29 10:07:27;;;;;;;1.50;0.90;;;;;;;;;;4991634;28;20431;-69
2021/01/29 10:10:03;;;;;;;1.40;0.80;;;;;;;;;;4991418;28;20459;-68
2021/01/29 10:12:30;;;;;;;1.50;0.73;;;;;;;;;;4989662;28;20461;-65
2021/01/29 10:15:02;;;;;;;1.30;0.80;;;;;;;;;;4989860;28;20942;-65
2021/01/29 10:17:31;;;;;;;1.90;1.10;;;;;;;;;;4992968;28;20766;-65
2021/01/29 10:20:03;;;;;;;1.20;0.70;;;;;;;;;;4992548;28;20485;-64
2021/01/29 10:22:44;;;;;;;1.97;0.80;;;;;;;;;;4993696;28;20793;-65
2021/01/29 10:25:19;;;;;;;1.40;0.90;;;;;;;;;;4991352;28;20447;-65
2021/01/29 10:27:51;;;;;;;1.47;0.90;;;;;;;;;;4992305;28;20431;-65
2021/01/29 10:30:17;;;;;;;1.50;0.80;;;;;;;;;;4994582;28;20422;-66
2021/01/29 10:32:53;;;;;;;1.70;0.90;;;;;;;;;;4993047;28;20438;-65
2021/01/29 10:35:24;;;;;;;3.47;0.73;;;;;;;;;;4991488;28;20522;-65
2021/01/29 10:38:03;;;;;;;1.20;0.70;;;;;;;;;;4993069;28;20428;-63
2021/01/29 10:40:35;;;;;;;1.73;0.80;;;;;;;;;;4989269;28;20419;-65
2021/01/29 10:43:05;;;;;;;1.40;0.77;;;;;;;;;;4993480;28;20441;-63
2021/01/29 10:45:38;;;;;;;1.30;0.70;;;;;;;;;;4992669;28;20414;-64
2021/01/29 10:48:10;;;;;;;1.37;0.80;;;;;;;;;;4992149;28;20937;-63
2021/01/29 10:50:43;;;;;;;1.60;0.80;;;;;;;;;;4974881;28;20441;-65
2021/01/29 10:53:12;;;;;;;1.50;0.73;;;;;;;;;;4991329;28;20424;-65
2021/01/29 10:55:40;;;;;;;2.00;1.10;;;;;;;;;;4990285;28;20549;-65
2021/01/29 10:58:24;;;;;;;1.33;1.07;;;;;;;;;;4991979;28;20439;-65
2021/01/29 11:00:55;;;;;;;1.60;0.90;;;;;;;;;;4992430;28;20422;-65
2021/01/29 11:03:41;;;;;;;1.50;0.80;;;;;;;;;;4991927;28;20447;-67
2021/01/29 11:06:10;;;;;;;1.60;1.13;;;;;;;;;;4993277;28;20828;-65
2021/01/29 11:08:43;;;;;;;1.37;0.70;;;;;;;;;;4997655;28;20953;-65
2021/01/29 11:11:12;;;;;;;1.20;0.70;;;;;;;;;;4983929;28;20855;-66
2021/01/29 11:13:50;;;;;;;1.60;0.90;;;;;;;;;;4991597;28;20428;-66
2021/01/29 11:16:18;;;;;;;1.70;0.80;;;;;;;;;;4992576;28;20418;-65
2021/01/29 11:18:47;;;;;;;1.60;1.00;;;;;;;;;;4992060;28;20480;-65
2021/01/29 11:21:22;;;;;;;1.30;0.80;;;;;;;;;;4992826;28;20459;-65
2021/01/29 11:24:08;;;;;;;1.50;0.90;;;;;;;;;;4989410;28;20494;-66
2021/01/29 11:26:41;;;;;;;2.80;0.83;;;;;;;;;;4987471;28;20429;-65
2021/01/29 11:29:13;;;;;;;1.40;0.87;;;;;;;;;;4991814;28;20500;-63
2021/01/29 11:31:45;;;;;;;2.70;0.80;;;;;;;;;;4991475;28;20435;-63
2021/01/29 11:34:23;;;;;;;1.50;0.90;;;;;;;;;;4991804;28;20484;-63
2021/01/29 11:37:00;;;;;;;1.90;0.80;;;;;;;;;;4991180;28;20398;-63
2021/01/29 11:39:40;;;;;;;1.50;0.80;;;;;;;;;;4991671;28;20470;-64
2021/01/29 11:42:06;;;;;;;3.70;0.90;;;;;;;;;;4991410;28;20448;-63
2021/01/29 11:44:38;;;;;;;1.40;0.90;;;;;;;;;;4994795;28;20434;-66
2021/01/29 11:47:09;;;;;;;1.57;0.83;;;;;;;;;;4981064;28;20935;-65
2021/01/29 11:49:37;;;;;;;1.60;0.80;;;;;;;;;;4989520;28;20471;-66
2021/01/29 11:52:08;;;;;;;1.47;0.77;;;;;;;;;;4994367;28;20203;-65
2021/01/29 11:54:50;;;;;;;1.47;0.97;;;;;;;;;;4991245;28;20464;-64
2021/01/29 11:57:19;;;;;;;1.60;0.70;;;;;;;;;;4986561;28;20880;-66
2021/01/29 11:59:48;;;;;;;1.50;1.00;;;;;;;;;;4986480;28;20180;-66
2021/01/29 12:02:24;;;;;;;1.50;0.90;;;;;;;;;;4996024;28;20523;-64
2021/01/29 12:04:58;;;;;;;1.70;0.80;;;;;;;;;;4994281;28;20424;-66
2021/01/29 12:07:31;;;;;;;1.87;1.00;;;;;;;;;;4993665;28;20248;-67
2021/01/29 12:10:00;;;;;;;1.30;0.70;;;;;;;;;;4994413;28;20524;-65
2021/01/29 12:12:37;;;;;;;2.05;0.75;;;;;;;;;;4994812;28;20463;-67
2021/01/29 12:15:11;;;;;;;1.70;0.90;;;;;;;;;;4992918;28;20736;-66
2021/01/29 12:17:38;;;;;;;2.03;1.00;;;;;;;;;;4995580;28;20458;-67
2021/01/29 12:20:07;;;;;;;1.40;0.90;;;;;;;;;;4994737;28;20446;-66
2021/01/29 12:22:48;;;;;;;1.30;0.80;;;;;;;;;;4994912;28;20427;-66
2021/01/29 12:25:23;;;;;;;1.70;1.10;;;;;;;;;;4994334;28;20443;-67
2021/01/29 12:27:52;;;;;;;1.60;0.90;;;;;;;;;;4995249;28;20427;-66
2021/01/29 12:30:21;;;;;;;4.00;1.20;;;;;;;;;;4994927;28;20461;-66
2021/01/29 12:32:50;;;;;;;1.67;0.90;;;;;;;;;;4993911;28;20984;-65
2021/01/29 12:35:22;;;;;;;1.80;1.00;;;;;;;;;;4994506;28;20499;-64
2021/01/29 12:37:57;;;;;;;3.70;1.10;;;;;;;;;;4994958;28;20409;-66
2021/01/29 12:40:30;;;;;;;4.17;1.10;;;;;;;;;;4994516;28;20442;-66
2021/01/29 12:43:05;;;;;;;2.77;0.80;;;;;;;;;;5032830;22;20524;-66
2021/01/29 12:45:34;;;;;;;2.53;1.47;;;;;;;;;;5013167;28;20902;-66
2021/01/29 12:48:23;;;;;;;2.53;0.70;;;;;;;;;;5015203;28;20800;-65
2021/01/29 12:50:50;;;;;;;2.00;1.20;;;;;;;;;;5014632;28;20434;-66
2021/01/29 12:53:19;;;;;;;1.53;0.87;;;;;;;;;;5015286;28;20842;-65
2021/01/29 12:55:48;;;;;;;1.70;1.07;;;;;;;;;;5014425;28;20521;-66
2021/01/29 12:58:16;;;;;;;1.70;1.00;;;;;;;;;;5014552;28;20812;-66
2021/01/29 13:00:42;;;;;;;1.70;1.10;;;;;;;;;;5013986;28;20444;-66
2021/01/29 13:03:28;;;;;;;2.33;0.90;;;;;;;;;;5010046;28;20438;-66
2021/01/29 13:06:13;;;;;;;2.20;1.00;;;;;;;;;;5011390;28;20487;-66
2021/01/29 13:08:42;;;;;;;1.90;1.00;;;;;;;;;;5014485;28;20409;-66
2021/01/29 13:11:17;;;;;;;1.40;0.80;;;;;;;;;;5012172;28;20464;-66
2021/01/29 13:13:55;;;;;;;1.30;0.70;;;;;;;;;;5014127;28;20424;-66
2021/01/29 13:16:26;;;;;;;2.30;1.27;;;;;;;;;;5013410;28;20513;-66
2021/01/29 13:19:02;;;;;;;1.77;1.00;;;;;;;;;;5013402;28;20414;-66
2021/01/29 13:21:31;;;;;;;1.40;0.80;;;;;;;;;;5013723;28;20779;-67
2021/01/29 13:23:59;;;;;;;1.30;0.80;;;;;;;;;;5013474;28;20410;-67
2021/01/29 13:26:28;;;;;;;1.27;0.70;;;;;;;;;;5012990;28;20410;-66
2021/01/29 13:29:01;;;;;;;1.70;0.87;;;;;;;;;;5003480;28;20428;-66
2021/01/29 13:31:31;;;;;;;1.30;0.80;;;;;;;;;;5005471;28;20789;-68
2021/01/29 13:34:00;;;;;;;1.30;0.80;;;;;;;;;;5005829;28;20460;-66
2021/01/29 13:36:33;;;;;;;1.70;0.73;;;;;;;;;;5007393;28;20436;-67
2021/01/29 13:39:19;;;;;;;1.50;0.80;;;;;;;;;;4994907;28;20400;-65
2021/01/29 13:42:24;;;;;;;1.30;0.80;;;;;;;;;;5011793;28;20824;-65
2021/01/29 13:44:53;;;;;;;4.93;0.80;;;;;;;;;;4953120;28;20446;-66
2021/01/29 13:47:24;;;;;;;1.47;0.80;;;;;;;;;;4953454;29;20444;-65
2021/01/29 13:49:50;;;;;;;1.60;0.90;;;;;;;;;;4985161;28;20516;-64
2021/01/29 13:52:29;;;;;;;3.73;1.27;;;;;;;;;;5014590;28;20978;-66
2021/01/29 13:54:57;;;;;;;1.40;0.70;;;;;;;;;;5012229;28;20470;-66
2021/01/29 13:57:25;;;;;;;2.43;1.07;;;;;;;;;;5013876;28;20440;-67
2021/01/29 14:00:06;;;;;;;1.90;1.00;;;;;;;;;;5012293;28;20475;-67
2021/01/29 14:02:34;;;;;;;1.73;1.00;;;;;;;;;;5013852;28;20424;-66
2021/01/29 14:05:19;;;;;;;1.73;0.80;;;;;;;;;;5012721;28;20509;-65
2021/01/29 14:07:46;;;;;;;1.60;0.80;;;;;;;;;;5014231;28;20411;-65
2021/01/29 14:10:18;;;;;;;1.50;0.87;;;;;;;;;;5013112;28;20455;-66
2021/01/29 14:12:59;;;;;;;2.47;0.80;;;;;;;;;;5014004;28;20485;-66
2021/01/29 14:15:29;;;;;;;1.30;0.80;;;;;;;;;;5012731;28;20503;-66
2021/01/29 14:18:15;;;;;;;5.03;1.10;;;;;;;;;;5013933;28;20412;-66
2021/01/29 14:20:46;;;;;;;1.57;0.90;;;;;;;;;;5013213;28;20775;-65
2021/01/29 14:23:18;;;;;;;1.40;1.00;;;;;;;;;;5013963;28;20432;-65
2021/01/29 14:25:46;;;;;;;1.40;0.70;;;;;;;;;;5010610;28;20437;-65
2021/01/29 14:28:18;;;;;;;1.70;1.10;;;;;;;;;;5012213;28;20439;-65
2021/01/29 14:31:11;;;;;;;1.60;0.80;;;;;;;;;;5012633;28;20904;-66
2021/01/29 14:33:58;;;;;;;1.60;0.90;;;;;;;;;;4990298;28;20449;-65
2021/01/29 14:36:45;;;;;;;1.50;0.83;;;;;;;;;;5000425;28;20779;-66
2021/01/29 14:39:11;;;;;;;1.50;0.70;;;;;;;;;;4993269;28;20416;-66
2021/01/29 14:41:40;;;;;;;1.40;0.90;;;;;;;;;;5007393;28;21009;-67
2021/01/29 14:44:12;;;;;;;1.30;0.70;;;;;;;;;;5013075;28;20393;-66
2021/01/29 14:46:56;;;;;;;1.33;0.77;;;;;;;;;;5011936;28;20435;-66
2021/01/29 14:49:22;;;;;;;1.30;0.80;;;;;;;;;;5012998;28;20449;-66
2021/01/29 14:51:54;;;;;;;1.70;0.97;;;;;;;;;;5012779;28;20964;-67
2021/01/29 14:54:22;;;;;;;1.60;0.80;;;;;;;;;;5011627;28;20515;-66
2021/01/29 14:57:00;;;;;;;1.40;0.90;;;;;;;;;;5012526;28;20471;-66
2021/01/29 14:59:31;;;;;;;1.40;0.80;;;;;;;;;;5013111;28;20465;-66
2021/01/29 15:02:00;;;;;;;2.10;1.10;;;;;;;;;;5011351;28;20463;-66
2021/01/29 15:04:34;;;;;;;1.40;0.77;;;;;;;;;;5013751;28;20421;-65
2021/01/29 15:07:23;;;;;;;1.60;1.00;;;;;;;;;;5005455;28;20439;-66
2021/01/29 15:09:58;;;;;;;1.40;0.80;;;;;;;;;;4996110;28;20441;-66
2021/01/29 15:12:24;;;;;;;1.70;0.97;;;;;;;;;;5003276;28;20452;-66
2021/01/29 15:14:50;;;;;;;1.33;1.00;;;;;;;;;;5001714;28;20888;-66
2021/01/29 15:17:26;;;;;;;1.60;0.73;;;;;;;;;;5008532;28;20959;-66
2021/01/29 15:19:53;;;;;;;1.50;0.80;;;;;;;;;;5004649;28;20411;-66